sensor_id;sensor_type;location;lat;lon;timestamp;P1;durP1;ratioP1;P2;durP2;ratioP2
78298;SDS011;67556;55.656;12.590;2023-04-24T00:00:21;30.92;;;18.80;;
78298;SDS011;67556;55.656;12.590;2023-04-24T00:02:47;30.08;;;18.33;;
78298;SDS011;67556;55.656;12.590;2023-04-24T00:05:14;31.20;;;19.25;;
78298;SDS011;67556;55.656;12.590;2023-04-24T00:07:44;28.25;;;18.58;;
78298;SDS011;67556;55.656;12.590;2023-04-24T00:10:17;28.73;;;17.33;;
78298;SDS011;67556;55.656;12.590;2023-04-24T00:12:46;27.73;;;16.85;;
78298;SDS011;67556;55.656;12.590;2023-04-24T00:15:28;27.48;;;17.38;;
78298;SDS011;67556;55.656;12.590;2023-04-24T00:17:55;25.20;;;16.65;;
78298;SDS011;67556;55.656;12.590;2023-04-24T00:20:21;28.70;;;17.98;;
78298;SDS011;67556;55.656;12.590;2023-04-24T00:22:54;23.85;;;15.77;;
78298;SDS011;67556;55.656;12.590;2023-04-24T00:25:22;24.15;;;15.75;;
78298;SDS011;67556;55.656;12.590;2023-04-24T00:27:50;27.65;;;16.80;;
78298;SDS011;67556;55.656;12.590;2023-04-24T00:30:17;25.90;;;16.90;;
78298;SDS011;67556;55.656;12.590;2023-04-24T00:32:49;28.98;;;17.77;;
78298;SDS011;67556;55.656;12.590;2023-04-24T00:35:16;28.25;;;17.35;;
78298;SDS011;67556;55.656;12.590;2023-04-24T00:37:45;27.45;;;18.20;;
78298;SDS011;67556;55.656;12.590;2023-04-24T00:40:18;32.28;;;16.63;;
78298;SDS011;67556;55.656;12.590;2023-04-24T00:42:46;24.63;;;15.88;;
78298;SDS011;67556;55.656;12.590;2023-04-24T00:45:14;23.73;;;15.07;;
78298;SDS011;67556;55.656;12.590;2023-04-24T00:47:42;23.95;;;14.38;;
78298;SDS011;67556;55.656;12.590;2023-04-24T00:50:10;21.02;;;14.63;;
78298;SDS011;67556;55.656;12.590;2023-04-24T00:52:40;22.30;;;14.77;;
78298;SDS011;67556;55.656;12.590;2023-04-24T00:55:25;24.23;;;14.55;;
78298;SDS011;67556;55.656;12.590;2023-04-24T00:57:51;23.75;;;14.20;;
78298;SDS011;67556;55.656;12.590;2023-04-24T01:00:38;20.42;;;12.55;;
78298;SDS011;67556;55.656;12.590;2023-04-24T01:03:18;23.67;;;14.10;;
78298;SDS011;67556;55.656;12.590;2023-04-24T01:05:46;23.65;;;13.63;;
78298;SDS011;67556;55.656;12.590;2023-04-24T01:08:27;25.55;;;14.88;;
78298;SDS011;67556;55.656;12.590;2023-04-24T01:11:00;24.17;;;14.23;;
78298;SDS011;67556;55.656;12.590;2023-04-24T01:13:48;22.65;;;14.48;;
78298;SDS011;67556;55.656;12.590;2023-04-24T01:16:16;23.95;;;15.70;;
78298;SDS011;67556;55.656;12.590;2023-04-24T01:18:42;24.63;;;13.85;;
78298;SDS011;67556;55.656;12.590;2023-04-24T01:21:11;23.58;;;15.32;;
78298;SDS011;67556;55.656;12.590;2023-04-24T01:23:42;23.50;;;15.85;;
78298;SDS011;67556;55.656;12.590;2023-04-24T01:26:10;22.80;;;14.18;;
78298;SDS011;67556;55.656;12.590;2023-04-24T01:28:37;26.73;;;15.43;;
78298;SDS011;67556;55.656;12.590;2023-04-24T01:31:03;25.10;;;16.42;;
78298;SDS011;67556;55.656;12.590;2023-04-24T01:33:34;23.75;;;14.13;;
78298;SDS011;67556;55.656;12.590;2023-04-24T01:36:01;24.23;;;15.35;;
78298;SDS011;67556;55.656;12.590;2023-04-24T01:38:27;24.20;;;14.50;;
78298;SDS011;67556;55.656;12.590;2023-04-24T01:40:57;23.70;;;15.07;;
78298;SDS011;67556;55.656;12.590;2023-04-24T01:43:29;26.77;;;15.85;;
78298;SDS011;67556;55.656;12.590;2023-04-24T01:45:58;23.05;;;13.18;;
78298;SDS011;67556;55.656;12.590;2023-04-24T01:48:31;25.38;;;13.73;;
78298;SDS011;67556;55.656;12.590;2023-04-24T01:51:06;19.35;;;13.13;;
78298;SDS011;67556;55.656;12.590;2023-04-24T01:53:39;20.98;;;13.32;;
78298;SDS011;67556;55.656;12.590;2023-04-24T01:56:25;19.38;;;12.32;;
78298;SDS011;67556;55.656;12.590;2023-04-24T01:58:55;18.02;;;12.40;;
78298;SDS011;67556;55.656;12.590;2023-04-24T02:01:25;20.65;;;12.43;;
78298;SDS011;67556;55.656;12.590;2023-04-24T02:04:02;17.73;;;11.93;;
78298;SDS011;67556;55.656;12.590;2023-04-24T02:06:29;18.60;;;13.23;;
78298;SDS011;67556;55.656;12.590;2023-04-24T02:09:02;20.20;;;12.85;;
78298;SDS011;67556;55.656;12.590;2023-04-24T02:11:31;20.80;;;12.55;;
78298;SDS011;67556;55.656;12.590;2023-04-24T02:14:00;19.92;;;11.88;;
78298;SDS011;67556;55.656;12.590;2023-04-24T02:16:28;21.38;;;12.77;;
78298;SDS011;67556;55.656;12.590;2023-04-24T02:18:58;19.73;;;13.27;;
78298;SDS011;67556;55.656;12.590;2023-04-24T02:21:30;23.00;;;13.02;;
78298;SDS011;67556;55.656;12.590;2023-04-24T02:24:05;20.25;;;12.40;;
78298;SDS011;67556;55.656;12.590;2023-04-24T02:26:35;19.08;;;11.75;;
78298;SDS011;67556;55.656;12.590;2023-04-24T02:29:02;20.17;;;13.15;;
78298;SDS011;67556;55.656;12.590;2023-04-24T02:31:30;23.55;;;14.07;;
78298;SDS011;67556;55.656;12.590;2023-04-24T02:33:59;22.45;;;12.80;;
78298;SDS011;67556;55.656;12.590;2023-04-24T02:36:25;21.63;;;11.80;;
78298;SDS011;67556;55.656;12.590;2023-04-24T02:38:58;23.20;;;13.40;;
78298;SDS011;67556;55.656;12.590;2023-04-24T02:41:27;22.48;;;13.57;;
78298;SDS011;67556;55.656;12.590;2023-04-24T02:44:00;22.38;;;13.90;;
78298;SDS011;67556;55.656;12.590;2023-04-24T02:46:38;22.42;;;14.15;;
78298;SDS011;67556;55.656;12.590;2023-04-24T02:49:07;20.90;;;13.57;;
78298;SDS011;67556;55.656;12.590;2023-04-24T02:51:34;19.00;;;12.80;;
78298;SDS011;67556;55.656;12.590;2023-04-24T02:54:07;19.42;;;12.50;;
78298;SDS011;67556;55.656;12.590;2023-04-24T02:56:35;21.95;;;13.35;;
78298;SDS011;67556;55.656;12.590;2023-04-24T02:59:04;22.48;;;14.20;;
78298;SDS011;67556;55.656;12.590;2023-04-24T03:01:43;20.35;;;13.20;;
78298;SDS011;67556;55.656;12.590;2023-04-24T03:04:10;25.65;;;13.50;;
78298;SDS011;67556;55.656;12.590;2023-04-24T03:06:37;20.92;;;13.32;;
78298;SDS011;67556;55.656;12.590;2023-04-24T03:09:03;23.52;;;13.85;;
78298;SDS011;67556;55.656;12.590;2023-04-24T03:11:41;21.77;;;14.27;;
78298;SDS011;67556;55.656;12.590;2023-04-24T03:14:10;26.52;;;16.05;;
78298;SDS011;67556;55.656;12.590;2023-04-24T03:16:53;23.80;;;14.52;;
78298;SDS011;67556;55.656;12.590;2023-04-24T03:19:34;24.27;;;15.55;;
78298;SDS011;67556;55.656;12.590;2023-04-24T03:22:04;22.13;;;14.43;;
78298;SDS011;67556;55.656;12.590;2023-04-24T03:24:32;23.65;;;13.75;;
78298;SDS011;67556;55.656;12.590;2023-04-24T03:27:05;22.58;;;15.00;;
78298;SDS011;67556;55.656;12.590;2023-04-24T03:29:34;25.63;;;14.65;;
78298;SDS011;67556;55.656;12.590;2023-04-24T03:32:01;24.20;;;13.80;;
78298;SDS011;67556;55.656;12.590;2023-04-24T03:34:28;22.63;;;14.45;;
78298;SDS011;67556;55.656;12.590;2023-04-24T03:36:54;23.77;;;14.32;;
78298;SDS011;67556;55.656;12.590;2023-04-24T03:39:22;25.13;;;14.38;;
78298;SDS011;67556;55.656;12.590;2023-04-24T03:41:51;21.05;;;14.15;;
78298;SDS011;67556;55.656;12.590;2023-04-24T03:44:18;22.67;;;13.55;;
78298;SDS011;67556;55.656;12.590;2023-04-24T03:46:52;19.88;;;13.48;;
78298;SDS011;67556;55.656;12.590;2023-04-24T03:49:24;21.00;;;14.32;;
78298;SDS011;67556;55.656;12.590;2023-04-24T03:51:51;18.92;;;12.88;;
78298;SDS011;67556;55.656;12.590;2023-04-24T03:54:19;21.33;;;13.00;;
78298;SDS011;67556;55.656;12.590;2023-04-24T03:56:58;18.45;;;12.95;;
78298;SDS011;67556;55.656;12.590;2023-04-24T03:59:27;20.75;;;14.10;;
78298;SDS011;67556;55.656;12.590;2023-04-24T04:01:56;22.52;;;14.20;;
78298;SDS011;67556;55.656;12.590;2023-04-24T04:04:22;20.77;;;13.80;;
78298;SDS011;67556;55.656;12.590;2023-04-24T04:06:49;19.27;;;12.68;;
78298;SDS011;67556;55.656;12.590;2023-04-24T04:09:18;22.95;;;14.18;;
78298;SDS011;67556;55.656;12.590;2023-04-24T04:11:46;23.90;;;13.93;;
78298;SDS011;67556;55.656;12.590;2023-04-24T04:14:14;26.67;;;14.40;;
78298;SDS011;67556;55.656;12.590;2023-04-24T04:16:40;27.35;;;15.55;;
78298;SDS011;67556;55.656;12.590;2023-04-24T04:19:08;31.55;;;16.85;;
78298;SDS011;67556;55.656;12.590;2023-04-24T04:21:35;33.40;;;18.63;;
78298;SDS011;67556;55.656;12.590;2023-04-24T04:24:04;41.50;;;19.23;;
78298;SDS011;67556;55.656;12.590;2023-04-24T04:26:34;44.60;;;22.48;;
78298;SDS011;67556;55.656;12.590;2023-04-24T04:29:03;45.85;;;20.65;;
78298;SDS011;67556;55.656;12.590;2023-04-24T04:31:32;41.67;;;20.98;;
78298;SDS011;67556;55.656;12.590;2023-04-24T04:34:00;40.30;;;19.95;;
78298;SDS011;67556;55.656;12.590;2023-04-24T04:36:29;44.13;;;20.92;;
78298;SDS011;67556;55.656;12.590;2023-04-24T04:38:56;48.33;;;22.23;;
78298;SDS011;67556;55.656;12.590;2023-04-24T04:41:24;37.10;;;20.38;;
78298;SDS011;67556;55.656;12.590;2023-04-24T04:43:51;40.67;;;21.67;;
78298;SDS011;67556;55.656;12.590;2023-04-24T04:46:18;40.35;;;20.70;;
78298;SDS011;67556;55.656;12.590;2023-04-24T04:48:45;41.22;;;20.77;;
78298;SDS011;67556;55.656;12.590;2023-04-24T04:51:11;38.55;;;18.88;;
78298;SDS011;67556;55.656;12.590;2023-04-24T04:53:39;34.70;;;19.25;;
78298;SDS011;67556;55.656;12.590;2023-04-24T04:56:06;35.15;;;16.98;;
78298;SDS011;67556;55.656;12.590;2023-04-24T04:58:33;32.45;;;17.55;;
78298;SDS011;67556;55.656;12.590;2023-04-24T05:01:01;35.33;;;17.95;;
78298;SDS011;67556;55.656;12.590;2023-04-24T05:03:29;34.33;;;18.27;;
78298;SDS011;67556;55.656;12.590;2023-04-24T05:05:57;31.13;;;16.10;;
78298;SDS011;67556;55.656;12.590;2023-04-24T05:08:25;30.15;;;17.00;;
78298;SDS011;67556;55.656;12.590;2023-04-24T05:10:55;28.15;;;15.05;;
78298;SDS011;67556;55.656;12.590;2023-04-24T05:13:24;28.92;;;15.80;;
78298;SDS011;67556;55.656;12.590;2023-04-24T05:15:56;32.00;;;16.50;;
78298;SDS011;67556;55.656;12.590;2023-04-24T05:18:24;27.00;;;14.85;;
78298;SDS011;67556;55.656;12.590;2023-04-24T05:20:57;26.13;;;14.88;;
78298;SDS011;67556;55.656;12.590;2023-04-24T05:23:26;25.52;;;12.95;;
78298;SDS011;67556;55.656;12.590;2023-04-24T05:25:53;28.52;;;14.95;;
78298;SDS011;67556;55.656;12.590;2023-04-24T05:28:22;25.70;;;14.57;;
78298;SDS011;67556;55.656;12.590;2023-04-24T05:30:49;26.35;;;15.25;;
78298;SDS011;67556;55.656;12.590;2023-04-24T05:33:17;27.15;;;14.57;;
78298;SDS011;67556;55.656;12.590;2023-04-24T05:35:45;26.33;;;15.27;;
78298;SDS011;67556;55.656;12.590;2023-04-24T05:38:13;27.02;;;15.70;;
78298;SDS011;67556;55.656;12.590;2023-04-24T05:40:42;31.10;;;16.25;;
78298;SDS011;67556;55.656;12.590;2023-04-24T05:43:19;30.60;;;15.60;;
78298;SDS011;67556;55.656;12.590;2023-04-24T05:45:49;30.05;;;14.98;;
78298;SDS011;67556;55.656;12.590;2023-04-24T05:48:16;29.00;;;16.48;;
78298;SDS011;67556;55.656;12.590;2023-04-24T05:50:43;28.52;;;15.55;;
78298;SDS011;67556;55.656;12.590;2023-04-24T05:53:11;29.02;;;16.27;;
78298;SDS011;67556;55.656;12.590;2023-04-24T05:55:39;27.40;;;15.52;;
78298;SDS011;67556;55.656;12.590;2023-04-24T05:58:07;32.58;;;17.92;;
78298;SDS011;67556;55.656;12.590;2023-04-24T06:00:40;32.15;;;16.30;;
78298;SDS011;67556;55.656;12.590;2023-04-24T06:03:11;33.90;;;16.90;;
78298;SDS011;67556;55.656;12.590;2023-04-24T06:05:39;33.80;;;17.85;;
78298;SDS011;67556;55.656;12.590;2023-04-24T06:08:06;33.33;;;16.73;;
78298;SDS011;67556;55.656;12.590;2023-04-24T06:10:33;30.10;;;17.27;;
78298;SDS011;67556;55.656;12.590;2023-04-24T06:13:01;29.05;;;16.60;;
78298;SDS011;67556;55.656;12.590;2023-04-24T06:15:28;32.53;;;16.77;;
78298;SDS011;67556;55.656;12.590;2023-04-24T06:17:57;29.40;;;16.00;;
78298;SDS011;67556;55.656;12.590;2023-04-24T06:20:27;28.08;;;17.23;;
78298;SDS011;67556;55.656;12.590;2023-04-24T06:22:59;24.95;;;16.42;;
78298;SDS011;67556;55.656;12.590;2023-04-24T06:25:25;25.55;;;15.38;;
78298;SDS011;67556;55.656;12.590;2023-04-24T06:27:53;22.77;;;14.10;;
78298;SDS011;67556;55.656;12.590;2023-04-24T06:30:22;23.42;;;13.73;;
78298;SDS011;67556;55.656;12.590;2023-04-24T06:32:50;24.50;;;15.35;;
78298;SDS011;67556;55.656;12.590;2023-04-24T06:35:18;21.67;;;14.50;;
78298;SDS011;67556;55.656;12.590;2023-04-24T06:37:46;20.35;;;12.23;;
78298;SDS011;67556;55.656;12.590;2023-04-24T06:40:14;21.83;;;13.30;;
78298;SDS011;67556;55.656;12.590;2023-04-24T06:42:40;15.93;;;10.82;;
78298;SDS011;67556;55.656;12.590;2023-04-24T06:45:14;16.70;;;10.32;;
78298;SDS011;67556;55.656;12.590;2023-04-24T06:47:48;14.15;;;8.82;;
78298;SDS011;67556;55.656;12.590;2023-04-24T06:50:16;12.43;;;8.32;;
78298;SDS011;67556;55.656;12.590;2023-04-24T06:52:46;12.27;;;8.70;;
78298;SDS011;67556;55.656;12.590;2023-04-24T06:55:13;11.52;;;8.88;;
78298;SDS011;67556;55.656;12.590;2023-04-24T06:57:43;12.05;;;9.15;;
78298;SDS011;67556;55.656;12.590;2023-04-24T07:00:11;16.85;;;9.52;;
78298;SDS011;67556;55.656;12.590;2023-04-24T07:02:39;13.45;;;8.63;;
78298;SDS011;67556;55.656;12.590;2023-04-24T07:05:12;11.95;;;7.47;;
78298;SDS011;67556;55.656;12.590;2023-04-24T07:07:41;14.43;;;8.90;;
78298;SDS011;67556;55.656;12.590;2023-04-24T07:10:10;12.98;;;8.18;;
78298;SDS011;67556;55.656;12.590;2023-04-24T07:12:37;12.95;;;8.88;;
78298;SDS011;67556;55.656;12.590;2023-04-24T07:15:03;14.23;;;8.98;;
78298;SDS011;67556;55.656;12.590;2023-04-24T07:17:33;13.57;;;8.18;;
78298;SDS011;67556;55.656;12.590;2023-04-24T07:20:01;13.43;;;9.00;;
78298;SDS011;67556;55.656;12.590;2023-04-24T07:22:28;11.88;;;7.63;;
78298;SDS011;67556;55.656;12.590;2023-04-24T07:24:55;13.18;;;7.28;;
78298;SDS011;67556;55.656;12.590;2023-04-24T07:27:25;10.85;;;7.72;;
78298;SDS011;67556;55.656;12.590;2023-04-24T07:29:51;12.82;;;7.75;;
78298;SDS011;67556;55.656;12.590;2023-04-24T07:32:18;12.50;;;8.05;;
78298;SDS011;67556;55.656;12.590;2023-04-24T07:34:46;12.48;;;8.38;;
78298;SDS011;67556;55.656;12.590;2023-04-24T07:37:13;12.00;;;8.00;;
78298;SDS011;67556;55.656;12.590;2023-04-24T07:39:46;10.27;;;7.00;;
78298;SDS011;67556;55.656;12.590;2023-04-24T07:42:14;10.25;;;6.78;;
78298;SDS011;67556;55.656;12.590;2023-04-24T07:44:41;10.98;;;7.38;;
78298;SDS011;67556;55.656;12.590;2023-04-24T07:47:09;10.57;;;7.65;;
78298;SDS011;67556;55.656;12.590;2023-04-24T07:49:37;8.85;;;6.88;;
78298;SDS011;67556;55.656;12.590;2023-04-24T07:52:06;9.38;;;6.82;;
78298;SDS011;67556;55.656;12.590;2023-04-24T07:54:33;9.13;;;6.43;;
78298;SDS011;67556;55.656;12.590;2023-04-24T07:57:01;8.85;;;6.43;;
78298;SDS011;67556;55.656;12.590;2023-04-24T07:59:29;8.23;;;6.80;;
78298;SDS011;67556;55.656;12.590;2023-04-24T08:02:03;9.18;;;6.75;;
78298;SDS011;67556;55.656;12.590;2023-04-24T08:04:29;7.47;;;5.95;;
78298;SDS011;67556;55.656;12.590;2023-04-24T08:06:56;10.82;;;6.53;;
78298;SDS011;67556;55.656;12.590;2023-04-24T08:09:23;7.57;;;5.40;;
78298;SDS011;67556;55.656;12.590;2023-04-24T08:11:49;7.57;;;5.88;;
78298;SDS011;67556;55.656;12.590;2023-04-24T08:14:16;8.38;;;6.03;;
78298;SDS011;67556;55.656;12.590;2023-04-24T08:16:42;9.48;;;6.53;;
78298;SDS011;67556;55.656;12.590;2023-04-24T08:19:11;8.38;;;6.63;;
78298;SDS011;67556;55.656;12.590;2023-04-24T08:21:37;8.98;;;5.75;;
78298;SDS011;67556;55.656;12.590;2023-04-24T08:24:04;8.80;;;5.88;;
78298;SDS011;67556;55.656;12.590;2023-04-24T08:26:33;10.18;;;6.40;;
78298;SDS011;67556;55.656;12.590;2023-04-24T08:28:59;9.38;;;7.00;;
78298;SDS011;67556;55.656;12.590;2023-04-24T08:31:26;11.48;;;7.53;;
78298;SDS011;67556;55.656;12.590;2023-04-24T08:33:52;9.77;;;7.05;;
78298;SDS011;67556;55.656;12.590;2023-04-24T08:36:20;7.85;;;5.80;;
78298;SDS011;67556;55.656;12.590;2023-04-24T08:38:46;9.70;;;7.32;;
78298;SDS011;67556;55.656;12.590;2023-04-24T08:41:14;9.23;;;6.22;;
78298;SDS011;67556;55.656;12.590;2023-04-24T08:43:42;8.38;;;6.18;;
78298;SDS011;67556;55.656;12.590;2023-04-24T08:46:09;8.10;;;5.75;;
78298;SDS011;67556;55.656;12.590;2023-04-24T08:48:35;7.82;;;5.90;;
78298;SDS011;67556;55.656;12.590;2023-04-24T08:51:04;8.57;;;5.97;;
78298;SDS011;67556;55.656;12.590;2023-04-24T08:53:35;7.68;;;5.40;;
78298;SDS011;67556;55.656;12.590;2023-04-24T08:56:02;9.00;;;6.57;;
78298;SDS011;67556;55.656;12.590;2023-04-24T08:58:29;6.85;;;5.88;;
78298;SDS011;67556;55.656;12.590;2023-04-24T09:00:57;9.60;;;6.30;;
78298;SDS011;67556;55.656;12.590;2023-04-24T09:03:24;7.65;;;5.55;;
78298;SDS011;67556;55.656;12.590;2023-04-24T09:05:54;7.18;;;5.72;;
78298;SDS011;67556;55.656;12.590;2023-04-24T09:08:23;7.10;;;5.38;;
78298;SDS011;67556;55.656;12.590;2023-04-24T09:10:53;8.23;;;5.97;;
78298;SDS011;67556;55.656;12.590;2023-04-24T09:13:21;7.57;;;6.00;;
78298;SDS011;67556;55.656;12.590;2023-04-24T09:15:47;9.98;;;6.82;;
78298;SDS011;67556;55.656;12.590;2023-04-24T09:18:13;7.22;;;5.40;;
78298;SDS011;67556;55.656;12.590;2023-04-24T09:21:00;7.95;;;5.65;;
78298;SDS011;67556;55.656;12.590;2023-04-24T09:23:28;10.73;;;6.03;;
78298;SDS011;67556;55.656;12.590;2023-04-24T09:25:56;8.50;;;5.25;;
78298;SDS011;67556;55.656;12.590;2023-04-24T09:28:25;7.80;;;5.78;;
78298;SDS011;67556;55.656;12.590;2023-04-24T09:31:03;7.53;;;6.50;;
78298;SDS011;67556;55.656;12.590;2023-04-24T09:33:35;7.40;;;5.22;;
78298;SDS011;67556;55.656;12.590;2023-04-24T09:36:03;6.80;;;6.10;;
78298;SDS011;67556;55.656;12.590;2023-04-24T09:38:33;6.30;;;4.93;;
78298;SDS011;67556;55.656;12.590;2023-04-24T09:41:04;9.38;;;5.93;;
78298;SDS011;67556;55.656;12.590;2023-04-24T09:43:32;6.65;;;5.20;;
78298;SDS011;67556;55.656;12.590;2023-04-24T09:46:04;7.78;;;5.00;;
78298;SDS011;67556;55.656;12.590;2023-04-24T09:48:31;9.45;;;5.88;;
78298;SDS011;67556;55.656;12.590;2023-04-24T09:50:58;8.25;;;5.50;;
78298;SDS011;67556;55.656;12.590;2023-04-24T09:53:27;7.57;;;5.00;;
78298;SDS011;67556;55.656;12.590;2023-04-24T09:55:53;7.25;;;5.35;;
78298;SDS011;67556;55.656;12.590;2023-04-24T09:58:25;7.25;;;5.47;;
78298;SDS011;67556;55.656;12.590;2023-04-24T10:00:54;11.75;;;6.00;;
78298;SDS011;67556;55.656;12.590;2023-04-24T10:03:21;6.60;;;5.90;;
78298;SDS011;67556;55.656;12.590;2023-04-24T10:05:51;6.30;;;5.28;;
78298;SDS011;67556;55.656;12.590;2023-04-24T10:08:18;9.55;;;6.55;;
78298;SDS011;67556;55.656;12.590;2023-04-24T10:10:46;7.65;;;5.47;;
78298;SDS011;67556;55.656;12.590;2023-04-24T10:13:13;7.32;;;5.80;;
78298;SDS011;67556;55.656;12.590;2023-04-24T10:15:42;8.23;;;5.68;;
78298;SDS011;67556;55.656;12.590;2023-04-24T10:18:09;7.50;;;5.85;;
78298;SDS011;67556;55.656;12.590;2023-04-24T10:20:38;7.22;;;6.22;;
78298;SDS011;67556;55.656;12.590;2023-04-24T10:23:06;8.07;;;6.38;;
78298;SDS011;67556;55.656;12.590;2023-04-24T10:25:33;7.55;;;6.40;;
78298;SDS011;67556;55.656;12.590;2023-04-24T10:28:01;6.93;;;5.75;;
78298;SDS011;67556;55.656;12.590;2023-04-24T10:30:29;7.53;;;6.15;;
78298;SDS011;67556;55.656;12.590;2023-04-24T10:33:01;7.40;;;5.63;;
78298;SDS011;67556;55.656;12.590;2023-04-24T10:35:30;6.85;;;5.47;;
78298;SDS011;67556;55.656;12.590;2023-04-24T10:37:58;9.93;;;6.38;;
78298;SDS011;67556;55.656;12.590;2023-04-24T10:40:29;7.38;;;5.50;;
78298;SDS011;67556;55.656;12.590;2023-04-24T10:42:57;6.35;;;5.07;;
78298;SDS011;67556;55.656;12.590;2023-04-24T10:45:24;6.97;;;5.38;;
78298;SDS011;67556;55.656;12.590;2023-04-24T10:47:51;6.72;;;4.82;;
78298;SDS011;67556;55.656;12.590;2023-04-24T10:50:20;8.60;;;5.40;;
78298;SDS011;67556;55.656;12.590;2023-04-24T10:52:46;6.38;;;5.13;;
78298;SDS011;67556;55.656;12.590;2023-04-24T10:55:16;7.43;;;5.35;;
78298;SDS011;67556;55.656;12.590;2023-04-24T10:58:03;5.97;;;5.18;;
78298;SDS011;67556;55.656;12.590;2023-04-24T11:00:30;9.02;;;5.82;;
78298;SDS011;67556;55.656;12.590;2023-04-24T11:02:56;7.15;;;5.15;;
78298;SDS011;67556;55.656;12.590;2023-04-24T11:05:48;7.45;;;5.50;;
78298;SDS011;67556;55.656;12.590;2023-04-24T11:08:21;6.85;;;5.03;;
78298;SDS011;67556;55.656;12.590;2023-04-24T11:10:54;8.35;;;6.03;;
78298;SDS011;67556;55.656;12.590;2023-04-24T11:13:23;9.05;;;5.90;;
78298;SDS011;67556;55.656;12.590;2023-04-24T11:18:49;8.05;;;6.35;;
78298;SDS011;67556;55.656;12.590;2023-04-24T11:21:20;8.00;;;6.25;;
78298;SDS011;67556;55.656;12.590;2023-04-24T11:23:48;8.38;;;6.68;;
78298;SDS011;67556;55.656;12.590;2023-04-24T11:26:17;8.45;;;5.97;;
78298;SDS011;67556;55.656;12.590;2023-04-24T11:28:45;10.55;;;7.50;;
78298;SDS011;67556;55.656;12.590;2023-04-24T11:34:07;10.60;;;6.93;;
78298;SDS011;67556;55.656;12.590;2023-04-24T11:36:36;9.18;;;6.70;;
78298;SDS011;67556;55.656;12.590;2023-04-24T11:39:02;8.43;;;7.07;;
78298;SDS011;67556;55.656;12.590;2023-04-24T11:41:33;9.73;;;6.20;;
78298;SDS011;67556;55.656;12.590;2023-04-24T11:44:02;8.35;;;7.13;;
78298;SDS011;67556;55.656;12.590;2023-04-24T11:46:31;9.40;;;6.20;;
78298;SDS011;67556;55.656;12.590;2023-04-24T11:48:59;11.18;;;7.15;;
78298;SDS011;67556;55.656;12.590;2023-04-24T11:51:26;8.90;;;6.70;;
78298;SDS011;67556;55.656;12.590;2023-04-24T11:53:54;10.23;;;6.95;;
78298;SDS011;67556;55.656;12.590;2023-04-24T11:56:21;8.63;;;6.60;;
78298;SDS011;67556;55.656;12.590;2023-04-24T11:58:51;7.93;;;6.15;;
78298;SDS011;67556;55.656;12.590;2023-04-24T12:01:19;9.27;;;5.78;;
78298;SDS011;67556;55.656;12.590;2023-04-24T12:03:47;7.82;;;5.35;;
78298;SDS011;67556;55.656;12.590;2023-04-24T12:06:14;8.52;;;6.25;;
78298;SDS011;67556;55.656;12.590;2023-04-24T12:08:40;7.85;;;6.18;;
78298;SDS011;67556;55.656;12.590;2023-04-24T12:11:08;8.38;;;5.90;;
78298;SDS011;67556;55.656;12.590;2023-04-24T12:13:35;9.23;;;6.10;;
78298;SDS011;67556;55.656;12.590;2023-04-24T12:16:03;7.05;;;5.55;;
78298;SDS011;67556;55.656;12.590;2023-04-24T12:18:31;7.45;;;5.70;;
78298;SDS011;67556;55.656;12.590;2023-04-24T12:23:53;6.72;;;5.53;;
78298;SDS011;67556;55.656;12.590;2023-04-24T12:26:23;6.00;;;5.28;;
78298;SDS011;67556;55.656;12.590;2023-04-24T12:28:51;6.72;;;5.43;;
78298;SDS011;67556;55.656;12.590;2023-04-24T12:31:18;6.72;;;5.35;;
78298;SDS011;67556;55.656;12.590;2023-04-24T12:33:46;5.32;;;4.82;;
78298;SDS011;67556;55.656;12.590;2023-04-24T12:36:13;7.28;;;4.93;;
78298;SDS011;67556;55.656;12.590;2023-04-24T12:38:39;6.00;;;5.28;;
78298;SDS011;67556;55.656;12.590;2023-04-24T12:41:11;6.55;;;5.47;;
78298;SDS011;67556;55.656;12.590;2023-04-24T12:43:49;7.13;;;5.20;;
78298;SDS011;67556;55.656;12.590;2023-04-24T12:46:17;8.30;;;5.30;;
78298;SDS011;67556;55.656;12.590;2023-04-24T12:48:43;6.93;;;5.38;;
78298;SDS011;67556;55.656;12.590;2023-04-24T12:51:12;7.45;;;5.15;;
78298;SDS011;67556;55.656;12.590;2023-04-24T12:53:38;5.88;;;5.13;;
78298;SDS011;67556;55.656;12.590;2023-04-24T12:56:05;6.65;;;5.20;;
78298;SDS011;67556;55.656;12.590;2023-04-24T12:58:31;6.07;;;5.47;;
78298;SDS011;67556;55.656;12.590;2023-04-24T13:01:00;5.93;;;5.15;;
78298;SDS011;67556;55.656;12.590;2023-04-24T13:03:33;6.85;;;5.43;;
78298;SDS011;67556;55.656;12.590;2023-04-24T13:06:00;6.05;;;4.60;;
78298;SDS011;67556;55.656;12.590;2023-04-24T13:08:28;7.50;;;5.20;;
78298;SDS011;67556;55.656;12.590;2023-04-24T13:10:55;5.72;;;4.63;;
78298;SDS011;67556;55.656;12.590;2023-04-24T13:13:29;7.15;;;4.78;;
78298;SDS011;67556;55.656;12.590;2023-04-24T13:15:55;6.53;;;5.20;;
78298;SDS011;67556;55.656;12.590;2023-04-24T13:18:24;5.97;;;5.07;;
78298;SDS011;67556;55.656;12.590;2023-04-24T13:20:52;6.63;;;5.00;;
78298;SDS011;67556;55.656;12.590;2023-04-24T13:23:20;6.95;;;5.22;;
78298;SDS011;67556;55.656;12.590;2023-04-24T13:25:47;6.45;;;4.97;;
78298;SDS011;67556;55.656;12.590;2023-04-24T13:28:14;6.80;;;5.03;;
78298;SDS011;67556;55.656;12.590;2023-04-24T13:30:40;5.90;;;5.03;;
78298;SDS011;67556;55.656;12.590;2023-04-24T13:33:07;5.65;;;5.03;;
78298;SDS011;67556;55.656;12.590;2023-04-24T13:35:35;8.30;;;5.20;;
78298;SDS011;67556;55.656;12.590;2023-04-24T13:38:02;6.55;;;5.05;;
78298;SDS011;67556;55.656;12.590;2023-04-24T13:40:30;6.72;;;5.75;;
78298;SDS011;67556;55.656;12.590;2023-04-24T13:42:57;6.32;;;5.15;;
78298;SDS011;67556;55.656;12.590;2023-04-24T13:45:23;5.65;;;5.07;;
78298;SDS011;67556;55.656;12.590;2023-04-24T13:47:52;5.32;;;4.68;;
78298;SDS011;67556;55.656;12.590;2023-04-24T13:50:21;5.63;;;5.03;;
78298;SDS011;67556;55.656;12.590;2023-04-24T13:52:54;5.90;;;4.88;;
78298;SDS011;67556;55.656;12.590;2023-04-24T13:55:21;5.95;;;4.55;;
78298;SDS011;67556;55.656;12.590;2023-04-24T13:57:49;5.18;;;4.68;;
78298;SDS011;67556;55.656;12.590;2023-04-24T14:00:17;5.03;;;4.30;;
78298;SDS011;67556;55.656;12.590;2023-04-24T14:02:44;6.88;;;4.75;;
78298;SDS011;67556;55.656;12.590;2023-04-24T14:05:10;6.28;;;5.15;;
78298;SDS011;67556;55.656;12.590;2023-04-24T14:07:40;4.82;;;4.00;;
78298;SDS011;67556;55.656;12.590;2023-04-24T14:10:09;5.00;;;4.22;;
78298;SDS011;67556;55.656;12.590;2023-04-24T14:12:36;5.72;;;4.38;;
78298;SDS011;67556;55.656;12.590;2023-04-24T14:15:04;7.53;;;4.43;;
78298;SDS011;67556;55.656;12.590;2023-04-24T14:17:33;4.90;;;4.38;;
78298;SDS011;67556;55.656;12.590;2023-04-24T14:20:00;5.15;;;4.25;;
78298;SDS011;67556;55.656;12.590;2023-04-24T14:22:28;4.63;;;4.22;;
78298;SDS011;67556;55.656;12.590;2023-04-24T14:24:55;6.03;;;4.35;;
78298;SDS011;67556;55.656;12.590;2023-04-24T14:27:23;4.78;;;4.28;;
78298;SDS011;67556;55.656;12.590;2023-04-24T14:29:50;4.13;;;3.70;;
78298;SDS011;67556;55.656;12.590;2023-04-24T14:32:16;5.43;;;4.00;;
78298;SDS011;67556;55.656;12.590;2023-04-24T14:34:44;5.13;;;3.70;;
78298;SDS011;67556;55.656;12.590;2023-04-24T14:37:10;5.63;;;3.78;;
78298;SDS011;67556;55.656;12.590;2023-04-24T14:39:37;3.97;;;3.17;;